createdAt,value
2019-06-07T00:01:45.731Z,88.63
2019-06-07T00:04:14.202Z,89.07
2019-06-07T00:06:42.065Z,77.87
2019-06-07T00:09:10.497Z,79.20
2019-06-07T00:11:37.912Z,70.03
2019-06-07T00:14:05.024Z,70.97
2019-06-07T00:16:31.903Z,73.80
2019-06-07T00:18:58.886Z,79.53
2019-06-07T00:22:06.612Z,72.60
2019-06-07T00:23:54.639Z,79.70
2019-06-07T00:26:21.529Z,78.87
2019-06-07T00:28:48.584Z,70.43
2019-06-07T00:31:21.907Z,70.57
2019-06-07T00:33:45.148Z,75.67
2019-06-07T00:36:14.603Z,73.90
2019-06-07T00:38:41.056Z,73.93
2019-06-07T00:41:08.209Z,79.30
2019-06-07T00:43:35.485Z,82.97
2019-06-07T00:46:02.352Z,74.43
2019-06-07T00:48:32.990Z,77.27
2019-06-07T00:50:58.325Z,77.17
2019-06-07T00:53:31.511Z,81.47
2019-06-07T00:55:54.439Z,93.03
2019-06-07T00:58:27.277Z,92.70
2019-06-07T01:00:50.549Z,91.17
2019-06-07T01:03:21.975Z,90.80
2019-06-07T01:05:46.300Z,95.57
2019-06-07T01:08:14.847Z,113.13
2019-06-07T01:10:53.219Z,100.50
2019-06-07T01:13:11.036Z,102.60
2019-06-07T01:15:38.091Z,104.37
2019-06-07T01:18:36.025Z,115.70
2019-06-07T01:20:34.160Z,107.83
2019-06-07T01:23:01.230Z,107.90
2019-06-07T01:25:31.892Z,111.47
2019-06-07T01:27:58.973Z,105.70
2019-06-07T01:30:26.894Z,109.77
2019-06-07T01:32:54.323Z,106.33
2019-06-07T01:35:22.101Z,107.70
2019-06-07T01:37:50.048Z,125.00
2019-06-07T01:40:20.765Z,122.63
2019-06-07T01:42:47.208Z,118.10
2019-06-07T01:45:14.793Z,129.87
2019-06-07T01:47:41.756Z,126.40
2019-06-07T01:50:09.427Z,125.97
2019-06-07T01:52:36.288Z,128.87
2019-06-07T01:55:03.880Z,127.33
2019-06-07T01:57:44.841Z,124.03
2019-06-07T01:59:59.523Z,118.50
2019-06-07T02:02:29.917Z,120.23
2019-06-07T02:04:55.167Z,108.37
2019-06-07T02:07:26.908Z,107.87
2019-06-07T02:09:50.950Z,90.67
2019-06-07T02:12:28.170Z,95.90
2019-06-07T02:14:46.792Z,92.33
2019-06-07T02:17:13.763Z,83.93
2019-06-07T02:19:40.839Z,82.73
2019-06-07T02:22:07.696Z,92.90
2019-06-07T02:24:35.795Z,81.53
2019-06-07T02:27:03.561Z,85.97
2019-06-07T02:29:33.387Z,90.27
2019-06-07T02:31:59.510Z,77.37
2019-06-07T02:34:28.072Z,79.13
2019-06-07T02:36:55.177Z,78.67
2019-06-07T02:39:25.233Z,91.70
2019-06-07T02:41:51.009Z,79.63
2019-06-07T02:44:17.982Z,71.73
2019-06-07T02:46:49.318Z,86.40
2019-06-07T02:49:14.253Z,61.97
2019-06-07T02:51:42.140Z,61.57
2019-06-07T02:54:09.293Z,62.57
2019-06-07T02:56:54.106Z,60.07
2019-06-07T02:59:04.992Z,60.87
2019-06-07T03:01:39.384Z,61.73
2019-06-07T03:04:02.829Z,53.80
2019-06-07T03:06:35.689Z,53.67
2019-06-07T03:09:00.557Z,53.93
2019-06-07T03:11:31.629Z,46.37
2019-06-07T03:14:01.609Z,49.33
2019-06-07T03:16:37.258Z,52.77
2019-06-07T03:19:18.452Z,51.18
2019-06-07T03:21:45.344Z,46.98
2019-06-07T03:24:12.745Z,44.55
2019-06-07T03:27:30.537Z,43.98
2019-06-07T03:29:08.804Z,43.33
2019-06-07T03:31:45.424Z,54.27
2019-06-07T03:34:04.997Z,37.03
2019-06-07T03:36:32.248Z,49.25
2019-06-07T03:38:59.772Z,41.20
2019-06-07T03:41:29.268Z,50.48
2019-06-07T03:43:55.436Z,47.62
2019-06-07T03:46:22.400Z,43.55
2019-06-07T03:48:49.276Z,48.33
2019-06-07T03:51:24.528Z,40.20
2019-06-07T03:53:45.537Z,57.30
2019-06-07T03:56:13.138Z,48.65
2019-06-07T03:58:49.002Z,45.80
2019-06-07T04:01:09.905Z,38.70
2019-06-07T04:03:46.519Z,49.03
2019-06-07T04:06:05.589Z,38.63
2019-06-07T04:08:34.452Z,40.00
2019-06-07T04:11:01.259Z,45.35
2019-06-07T04:13:30.478Z,46.65
2019-06-07T04:15:56.996Z,45.78
2019-06-07T04:18:23.856Z,54.97
2019-06-07T04:20:50.762Z,62.45
2019-06-07T04:23:27.795Z,66.50
2019-06-07T04:25:46.380Z,71.07
2019-06-07T04:28:13.359Z,83.30
2019-06-07T04:30:42.205Z,118.47
2019-06-07T04:33:09.928Z,77.07
2019-06-07T04:35:40.049Z,91.03
2019-06-07T04:38:07.388Z,103.97
2019-06-07T04:40:36.872Z,78.17
2019-06-07T04:43:04.943Z,79.10
2019-06-07T04:45:40.676Z,68.50
2019-06-07T04:48:03.627Z,65.20
2019-06-07T04:50:34.257Z,64.40
2019-06-07T04:53:00.676Z,59.50
2019-06-07T04:55:29.057Z,82.13
2019-06-07T04:57:56.323Z,57.93
2019-06-07T05:00:52.357Z,61.10
2019-06-07T05:02:59.937Z,48.87
2019-06-07T05:05:27.295Z,50.10
2019-06-07T05:07:54.272Z,29.57
2019-06-07T05:10:21.348Z,33.77
2019-06-07T05:12:48.938Z,22.40
2019-06-07T05:15:16.277Z,16.10
2019-06-07T05:17:45.227Z,15.57
2019-06-07T05:20:12.648Z,25.97
2019-06-07T05:22:44.393Z,20.90
2019-06-07T05:25:09.286Z,17.43
2019-06-07T05:27:41.082Z,22.80
2019-06-07T05:30:13.634Z,43.60
2019-06-07T05:32:37.536Z,42.77
2019-06-07T05:35:06.740Z,42.43
2019-06-07T05:37:35.707Z,31.87
2019-06-07T05:40:04.267Z,39.90
2019-06-07T05:42:32.136Z,40.63
2019-06-07T05:44:59.463Z,44.53
2019-06-07T05:47:27.182Z,53.13
2019-06-07T05:49:55.012Z,37.93
2019-06-07T05:52:22.269Z,48.57
2019-06-07T05:54:49.640Z,46.73
2019-06-07T05:57:16.837Z,47.40
2019-06-07T05:59:47.178Z,44.43
2019-06-07T06:02:22.264Z,45.63
2019-06-07T06:04:47.820Z,43.43
2019-06-07T06:07:11.692Z,43.77
2019-06-07T06:09:40.564Z,36.33
2019-06-07T06:12:08.357Z,42.53
2019-06-07T06:14:39.610Z,32.03
2019-06-07T06:17:04.757Z,33.90
2019-06-07T06:19:32.028Z,36.23
2019-06-07T06:21:59.900Z,38.97
2019-06-07T06:24:27.193Z,39.87
2019-06-07T06:27:05.088Z,37.77
2019-06-07T06:29:23.766Z,41.83
2019-06-07T06:32:40.072Z,45.93
2019-06-07T06:34:20.328Z,51.93
2019-06-07T06:36:50.288Z,39.13
2019-06-07T06:39:16.845Z,52.77
2019-06-07T06:41:56.412Z,48.73
2019-06-07T06:44:13.521Z,40.13
2019-06-07T06:46:44.818Z,39.63
2019-06-07T06:49:10.413Z,46.43
2019-06-07T06:51:39.294Z,44.87
2019-06-07T06:54:07.241Z,50.47
2019-06-07T06:56:34.445Z,32.53
2019-06-07T07:01:31.611Z,26.37
2019-06-07T07:04:11.266Z,27.17
2019-06-07T07:06:28.989Z,23.43
2019-06-07T07:08:57.474Z,38.50
2019-06-07T07:11:24.689Z,39.53
2019-06-07T07:13:56.175Z,29.53
2019-06-07T07:16:21.771Z,25.47
2019-06-07T07:18:51.716Z,25.67
2019-06-07T07:21:18.134Z,23.07
2019-06-07T07:24:05.521Z,15.20
2019-06-07T07:26:14.469Z,19.60
2019-06-07T07:28:43.046Z,27.57
2019-06-07T07:31:11.000Z,24.87
2019-06-07T07:34:24.086Z,29.53
2019-06-07T07:36:23.108Z,27.40
2019-06-07T07:38:36.913Z,22.63
2019-06-07T07:41:14.635Z,26.60
2019-06-07T07:43:33.275Z,27.10
2019-06-07T07:46:03.568Z,25.37
2019-06-07T07:48:29.664Z,25.00
2019-06-07T07:51:01.084Z,19.37
2019-06-07T07:53:45.305Z,22.67
2019-06-07T07:55:59.915Z,25.17
2019-06-07T07:58:24.374Z,21.70
2019-06-07T08:01:00.339Z,15.97
2019-06-07T08:03:21.677Z,19.27
2019-06-07T08:05:49.731Z,14.50
2019-06-07T08:08:18.302Z,12.00
2019-06-07T08:10:48.025Z,13.77
2019-06-07T08:13:25.006Z,12.83
2019-06-07T08:15:43.922Z,16.40
2019-06-07T08:18:11.469Z,6.30
2019-06-07T08:20:38.757Z,6.30
2019-06-07T08:23:06.101Z,6.40
2019-06-07T08:25:33.322Z,8.83
2019-06-07T08:28:00.545Z,14.00
2019-06-07T08:33:17.495Z,17.17
2019-06-07T08:38:21.519Z,23.27
2019-06-07T08:40:24.912Z,24.57
2019-06-07T08:43:10.823Z,25.20
2019-06-07T08:45:22.646Z,22.90
2019-06-07T08:47:56.528Z,18.60
2019-06-07T08:50:20.605Z,12.80
2019-06-07T08:52:56.496Z,17.23
2019-06-07T08:55:21.264Z,20.27
2019-06-07T08:57:48.537Z,18.00
2019-06-07T09:00:43.108Z,13.37
2019-06-07T09:02:46.056Z,17.47
2019-06-07T09:05:13.926Z,18.60
2019-06-07T09:07:41.146Z,14.70
2019-06-07T09:10:14.771Z,13.30
2019-06-07T09:12:38.645Z,9.90
2019-06-07T09:15:20.510Z,6.70
2019-06-07T09:17:35.274Z,8.30
2019-06-07T09:20:10.489Z,5.83
2019-06-07T09:22:31.830Z,5.80
2019-06-07T09:25:05.920Z,5.60
2019-06-07T09:27:28.513Z,6.10
2019-06-07T09:30:04.757Z,5.40
2019-06-07T09:32:27.161Z,4.00
2019-06-07T09:34:54.314Z,3.30
2019-06-07T09:38:03.594Z,3.63
2019-06-07T09:39:51.112Z,3.23
2019-06-07T09:42:18.450Z,3.70
2019-06-07T09:44:45.682Z,2.90
2019-06-07T09:47:31.131Z,3.63
2019-06-07T09:49:42.166Z,3.20
2019-06-07T09:52:11.089Z,3.37
2019-06-07T09:57:16.361Z,4.10
2019-06-07T09:59:36.769Z,4.30
2019-06-07T10:02:06.344Z,5.47
2019-06-07T10:04:33.355Z,6.93
2019-06-07T10:07:08.993Z,7.03
2019-06-07T10:12:00.365Z,9.47
2019-06-07T10:14:27.893Z,8.87
2019-06-07T10:16:55.150Z,9.03
2019-06-07T10:19:22.482Z,12.10
2019-06-07T10:21:49.882Z,11.17
2019-06-07T10:24:17.142Z,10.80
2019-06-07T10:26:44.561Z,11.63
2019-06-07T10:29:11.761Z,13.37
2019-06-07T10:31:39.262Z,13.43
2019-06-07T10:34:06.575Z,12.70
2019-06-07T10:36:33.933Z,13.60
2019-06-07T10:39:02.805Z,11.70
2019-06-07T10:41:30.061Z,12.30
2019-06-07T10:43:57.297Z,13.93
2019-06-07T10:46:24.524Z,11.83
2019-06-07T10:48:51.725Z,13.90
2019-06-07T10:51:18.962Z,10.23
2019-06-07T10:53:46.200Z,11.30
2019-06-07T10:56:13.573Z,10.47
2019-06-07T10:58:41.287Z,10.77
2019-06-07T11:01:09.366Z,12.70
2019-06-07T11:03:36.737Z,11.70
2019-06-07T11:06:04.164Z,10.37
2019-06-07T11:08:31.513Z,11.00
2019-06-07T11:10:58.733Z,10.10
2019-06-07T11:13:26.045Z,8.80
2019-06-07T11:15:53.413Z,9.30
2019-06-07T11:18:20.818Z,11.30
2019-06-07T11:20:48.120Z,10.97
2019-06-07T11:23:15.408Z,13.30
2019-06-07T11:25:42.647Z,13.07
2019-06-07T11:28:10.560Z,10.30
2019-06-07T11:30:38.188Z,12.90
2019-06-07T11:33:06.432Z,12.33
2019-06-07T11:35:33.856Z,9.03
2019-06-07T11:38:01.277Z,9.23
2019-06-07T11:40:35.493Z,10.80
2019-06-07T11:42:58.389Z,9.30
2019-06-07T11:45:25.625Z,8.60
2019-06-07T11:47:53.280Z,7.73
2019-06-07T11:50:20.341Z,9.10
2019-06-07T11:52:47.358Z,7.13
2019-06-07T11:55:15.853Z,9.00
2019-06-07T11:57:43.261Z,8.10
2019-06-07T12:00:13.902Z,8.00
2019-06-07T12:02:41.591Z,6.30
2019-06-07T12:05:10.372Z,9.37
2019-06-07T12:07:38.204Z,7.37
2019-06-07T12:10:06.137Z,4.60
2019-06-07T12:12:33.450Z,4.50
2019-06-07T12:15:00.742Z,5.40
2019-06-07T12:17:27.753Z,5.20
2019-06-07T12:19:55.097Z,5.50
2019-06-07T12:22:22.277Z,4.20
2019-06-07T12:24:49.694Z,4.50
2019-06-07T12:27:16.949Z,5.27
2019-06-07T12:29:44.314Z,4.60
2019-06-07T12:32:13.217Z,4.33
2019-06-07T12:34:40.729Z,4.40
2019-06-07T12:37:07.938Z,3.97
2019-06-07T12:39:35.286Z,4.17
2019-06-07T12:42:02.483Z,3.80
2019-06-07T12:44:29.735Z,3.40
2019-06-07T12:46:57.009Z,3.40
2019-06-07T12:49:24.272Z,3.00
2019-06-07T12:51:51.384Z,3.30
2019-06-07T12:54:19.660Z,3.13
2019-06-07T12:56:47.193Z,3.40
2019-06-07T12:59:14.451Z,2.73
2019-06-07T13:01:41.650Z,3.50
2019-06-07T13:04:08.841Z,2.93
2019-06-07T13:06:36.031Z,2.77
2019-06-07T13:09:05.205Z,3.30
2019-06-07T13:11:32.343Z,3.70
2019-06-07T13:13:59.692Z,4.00
2019-06-07T13:16:28.328Z,5.20
2019-06-07T13:18:55.835Z,7.27
2019-06-07T13:21:24.496Z,6.03
2019-06-07T13:23:52.065Z,5.23
2019-06-07T13:26:20.563Z,6.60
2019-06-07T13:28:48.033Z,6.33
2019-06-07T13:31:16.539Z,5.60
2019-06-07T13:33:44.030Z,5.93
2019-06-07T13:36:11.236Z,5.03
2019-06-07T13:38:38.417Z,5.63
2019-06-07T13:41:05.625Z,5.43
2019-06-07T13:43:32.886Z,4.53
2019-06-07T13:45:59.982Z,4.90
2019-06-07T13:48:27.790Z,4.87
2019-06-07T13:50:55.428Z,4.90
2019-06-07T13:53:22.995Z,6.10
2019-06-07T13:55:50.438Z,6.17
2019-06-07T13:58:18.681Z,6.17
2019-06-07T14:00:46.631Z,12.77
2019-06-07T14:03:13.968Z,6.00
2019-06-07T14:05:41.787Z,24.47
2019-06-07T14:08:09.005Z,5.27
2019-06-07T14:10:36.413Z,6.20
2019-06-07T14:13:03.685Z,5.40
2019-06-07T14:15:33.971Z,4.83
2019-06-07T14:18:00.314Z,5.50
2019-06-07T14:20:32.434Z,5.43
2019-06-07T14:22:56.757Z,4.77
2019-06-07T14:25:25.154Z,5.20
2019-06-07T14:27:52.790Z,5.90
2019-06-07T14:30:21.691Z,5.90
2019-06-07T14:32:49.273Z,5.70
2019-06-07T14:35:17.905Z,6.37
2019-06-07T14:37:45.146Z,6.67
2019-06-07T14:40:12.574Z,5.37
2019-06-07T14:42:39.773Z,5.60
2019-06-07T14:45:09.008Z,8.00
2019-06-07T14:47:36.703Z,5.37
2019-06-07T14:50:06.085Z,5.23
2019-06-07T14:52:34.987Z,6.20
2019-06-07T14:55:02.536Z,5.30
2019-06-07T14:57:31.019Z,5.70
2019-06-07T14:59:58.385Z,5.53
2019-06-07T15:02:26.335Z,4.33
2019-06-07T15:04:54.006Z,4.70
2019-06-07T15:07:21.039Z,4.30
2019-06-07T15:09:48.911Z,4.10
2019-06-07T15:12:24.747Z,4.80
2019-06-07T15:14:45.665Z,4.63
2019-06-07T15:17:13.193Z,4.73
2019-06-07T15:19:40.782Z,4.20
2019-06-07T15:22:07.969Z,4.80
2019-06-07T15:24:38.623Z,4.70
2019-06-07T15:27:04.442Z,4.70
2019-06-07T15:29:31.827Z,4.57
2019-06-07T15:31:59.576Z,4.00
2019-06-07T15:34:28.812Z,4.10
2019-06-07T15:36:55.634Z,4.93
2019-06-07T15:39:23.417Z,4.20
2019-06-07T15:41:50.618Z,4.70
2019-06-07T15:44:17.933Z,4.77
2019-06-07T15:46:45.202Z,5.10
2019-06-07T15:49:12.596Z,4.47
2019-06-07T15:51:40.980Z,5.33
2019-06-07T15:54:08.665Z,5.10
2019-06-07T15:56:36.914Z,4.57
2019-06-07T15:59:04.414Z,4.80
2019-06-07T16:01:33.081Z,5.63
2019-06-07T16:04:01.359Z,5.50
2019-06-07T16:06:28.679Z,5.20
2019-06-07T16:08:55.902Z,11.07
2019-06-07T16:11:23.194Z,9.00
2019-06-07T16:13:50.465Z,8.93
2019-06-07T16:16:17.763Z,8.93
2019-06-07T16:18:45.130Z,9.27
2019-06-07T16:21:12.325Z,9.03
2019-06-07T16:23:39.823Z,8.40
2019-06-07T16:26:07.445Z,7.73
2019-06-07T16:28:34.725Z,10.43
2019-06-07T16:31:02.021Z,10.63
2019-06-07T16:33:29.224Z,7.30
2019-06-07T16:35:56.518Z,8.10
2019-06-07T16:38:24.079Z,9.90
2019-06-07T16:40:51.665Z,10.73
2019-06-07T16:43:18.869Z,15.50
2019-06-07T16:45:46.278Z,12.93
2019-06-07T16:48:13.391Z,8.30
2019-06-07T16:50:40.909Z,6.30
2019-06-07T16:53:08.462Z,6.90
2019-06-07T16:55:36.470Z,8.87
2019-06-07T16:58:03.885Z,9.13
2019-06-07T17:00:31.405Z,9.97
2019-06-07T17:02:58.741Z,9.53
2019-06-07T17:05:25.971Z,10.10
2019-06-07T17:07:53.168Z,9.60
2019-06-07T17:10:21.201Z,7.50
2019-06-07T17:12:48.997Z,8.23
2019-06-07T17:15:17.184Z,7.13
2019-06-07T17:17:45.183Z,5.47
2019-06-07T17:20:12.711Z,7.43
2019-06-07T17:22:41.956Z,7.30
2019-06-07T17:25:09.991Z,8.60
2019-06-07T17:27:37.331Z,11.30
2019-06-07T17:30:05.277Z,10.03
2019-06-07T17:32:47.563Z,4.83
2019-06-07T17:35:02.404Z,4.20
2019-06-07T17:37:30.858Z,2.40
2019-06-07T17:39:58.909Z,2.13
2019-06-07T17:42:26.282Z,2.73
2019-06-07T17:44:53.343Z,1.77
2019-06-07T17:47:20.534Z,2.13
2019-06-07T17:49:48.431Z,2.57
2019-06-07T17:52:15.660Z,1.90
2019-06-07T17:54:43.843Z,3.67
2019-06-07T17:57:11.281Z,3.90
2019-06-07T17:59:38.617Z,8.20
2019-06-07T18:02:14.847Z,13.67
2019-06-07T18:04:35.453Z,12.10
2019-06-07T18:07:02.969Z,32.67
2019-06-07T18:09:31.017Z,41.60
2019-06-07T18:11:59.174Z,65.93
2019-06-07T18:14:26.461Z,95.43
2019-06-07T18:16:54.804Z,93.03
2019-06-07T18:19:22.500Z,88.70
2019-06-07T18:21:55.458Z,79.43
2019-06-07T18:24:19.126Z,90.87
2019-06-07T18:26:46.528Z,110.40
2019-06-07T18:29:13.753Z,101.33
2019-06-07T18:31:41.317Z,110.37
2019-06-07T18:34:08.620Z,107.47
2019-06-07T18:36:35.810Z,116.53
2019-06-07T18:39:05.357Z,127.60
2019-06-07T18:41:32.876Z,108.43
2019-06-07T18:44:00.133Z,98.73
2019-06-07T18:46:27.389Z,78.20
2019-06-07T18:48:54.863Z,83.73
2019-06-07T18:51:22.089Z,84.53
2019-06-07T18:53:49.814Z,76.63
2019-06-07T18:56:17.228Z,112.20
2019-06-07T18:58:44.572Z,131.80
2019-06-07T19:01:12.129Z,97.57
2019-06-07T19:03:39.785Z,97.10
2019-06-07T19:06:07.145Z,74.27
2019-06-07T19:08:34.485Z,93.90
2019-06-07T19:11:02.173Z,97.47
2019-06-07T19:13:29.464Z,126.60
2019-06-07T19:15:57.476Z,131.63
2019-06-07T19:18:24.765Z,153.20
2019-06-07T19:20:52.444Z,153.40
2019-06-07T19:23:20.166Z,154.63
2019-06-07T19:25:47.805Z,159.87
2019-06-07T19:28:15.108Z,160.03
2019-06-07T19:30:42.305Z,175.10
2019-06-07T19:33:09.535Z,163.50
2019-06-07T19:35:36.860Z,146.53
2019-06-07T19:38:04.084Z,152.73
2019-06-07T19:40:31.325Z,161.63
2019-06-07T19:42:58.749Z,169.17
2019-06-07T19:45:30.940Z,197.93
2019-06-07T19:47:56.502Z,187.83
2019-06-07T19:50:23.962Z,218.50
2019-06-07T19:52:51.333Z,205.23
2019-06-07T19:55:18.857Z,175.07
2019-06-07T19:57:49.372Z,143.17
2019-06-07T20:00:16.026Z,177.70
2019-06-07T20:02:43.259Z,193.03
2019-06-07T20:05:12.132Z,208.27
2019-06-07T20:07:39.921Z,212.80
2019-06-07T20:10:07.186Z,210.20
2019-06-07T20:12:34.465Z,204.13
2019-06-07T20:15:24.582Z,211.23
2019-06-07T20:17:31.065Z,240.20
2019-06-07T20:19:58.377Z,213.60
2019-06-07T20:22:25.716Z,202.67
2019-06-07T20:24:53.133Z,213.27
2019-06-07T20:27:20.309Z,218.90
2019-06-07T20:29:47.630Z,228.47
2019-06-07T20:32:15.300Z,216.63
2019-06-07T20:34:44.601Z,197.80
2019-06-07T20:37:11.753Z,189.83
2019-06-07T20:39:39.442Z,196.57
2019-06-07T20:42:07.857Z,211.80
2019-06-07T20:44:35.931Z,213.60
2019-06-07T20:47:04.181Z,175.43
2019-06-07T20:49:31.507Z,133.27
2019-06-07T20:51:58.797Z,100.53
2019-06-07T20:54:27.443Z,91.27
2019-06-07T20:56:54.669Z,118.63
2019-06-07T20:59:21.922Z,111.90
2019-06-07T21:01:49.077Z,136.63
2019-06-07T21:04:16.305Z,113.53
2019-06-07T21:06:46.909Z,154.07
2019-06-07T21:09:14.193Z,161.70
2019-06-07T21:11:41.769Z,172.90
2019-06-07T21:14:10.241Z,155.63
2019-06-07T21:16:37.605Z,158.20
2019-06-07T21:19:06.255Z,163.23
2019-06-07T21:21:34.054Z,163.67
2019-06-07T21:24:02.470Z,140.37
2019-06-07T21:26:29.914Z,114.60
2019-06-07T21:28:57.625Z,91.20
2019-06-07T21:31:25.210Z,84.03
2019-06-07T21:33:52.865Z,128.60
2019-06-07T21:36:20.181Z,96.90
2019-06-07T21:38:47.689Z,67.83
2019-06-07T21:41:15.247Z,39.87
2019-06-07T21:43:42.500Z,73.20
2019-06-07T21:46:17.244Z,45.73
2019-06-07T21:48:38.892Z,10.07
2019-06-07T21:51:06.382Z,18.67
2019-06-07T21:53:33.718Z,6.20
2019-06-07T21:56:00.973Z,8.17
2019-06-07T21:58:28.089Z,5.40
2019-06-07T22:01:33.813Z,6.37
2019-06-07T22:04:01.098Z,4.57
2019-06-07T22:06:28.436Z,7.30
2019-06-07T22:08:56.087Z,8.33
2019-06-07T22:11:23.437Z,7.80
2019-06-07T22:13:51.082Z,13.53
2019-06-07T22:16:28.578Z,20.20
2019-06-07T22:18:47.850Z,10.50
2019-06-07T22:21:15.189Z,14.87
2019-06-07T22:23:43.749Z,4.30
2019-06-07T22:26:11.509Z,5.40
2019-06-07T22:28:38.810Z,4.17
2019-06-07T22:31:06.424Z,4.57
2019-06-07T22:33:33.810Z,3.30
2019-06-07T22:36:01.445Z,4.80
2019-06-07T22:38:28.939Z,3.80
2019-06-07T22:40:56.338Z,3.03
2019-06-07T22:43:23.706Z,3.37
2019-06-07T22:45:50.965Z,3.40
2019-06-07T22:48:18.283Z,3.40
2019-06-07T22:50:45.542Z,3.37
2019-06-07T22:53:13.510Z,3.47
2019-06-07T22:55:43.218Z,3.90
2019-06-07T22:58:12.069Z,3.50
2019-06-07T23:00:39.621Z,3.27
2019-06-07T23:03:08.400Z,2.40
2019-06-07T23:05:35.982Z,3.67
2019-06-07T23:08:03.373Z,3.47
2019-06-07T23:10:30.584Z,4.50
2019-06-07T23:12:57.833Z,2.30
2019-06-07T23:15:25.416Z,3.40
2019-06-07T23:17:52.662Z,2.90
2019-06-07T23:20:20.823Z,2.30
2019-06-07T23:22:48.158Z,2.83
2019-06-07T23:25:20.172Z,3.07
2019-06-07T23:27:44.768Z,2.00
2019-06-07T23:30:12.458Z,2.37
2019-06-07T23:32:39.738Z,2.23
2019-06-07T23:35:07.782Z,2.40
2019-06-07T23:37:35.477Z,3.10
2019-06-07T23:40:03.253Z,2.87
2019-06-07T23:42:30.489Z,3.20
2019-06-07T23:44:57.774Z,2.87
2019-06-07T23:47:25.013Z,3.20
2019-06-07T23:49:52.285Z,2.00
2019-06-07T23:52:19.773Z,2.73
2019-06-07T23:54:47.323Z,2.77
2019-06-07T23:57:14.509Z,2.50
2019-06-07T23:59:41.773Z,2.77
